createdAt,value
2023-06-05T00:00:24.158Z,2.30
2023-06-05T00:01:24.130Z,2.30
2023-06-05T00:02:24.132Z,2.30
2023-06-05T00:03:24.195Z,2.30
2023-06-05T00:04:24.090Z,2.40
2023-06-05T00:05:23.958Z,2.60
2023-06-05T00:06:23.919Z,2.30
2023-06-05T00:07:23.897Z,2.40
2023-06-05T00:08:23.839Z,2.40
2023-06-05T00:09:23.806Z,2.40
2023-06-05T00:10:23.768Z,2.40
2023-06-05T00:11:23.725Z,2.30
2023-06-05T00:12:23.681Z,2.20
2023-06-05T00:13:23.674Z,2.10
2023-06-05T00:14:23.610Z,2.30
2023-06-05T00:15:23.596Z,2.40
2023-06-05T00:16:23.569Z,2.40
2023-06-05T00:17:23.508Z,2.20
2023-06-05T00:18:23.449Z,2.40
2023-06-05T00:19:23.429Z,2.30
2023-06-05T00:20:23.385Z,2.30
2023-06-05T00:21:23.337Z,2.30
2023-06-05T00:22:23.301Z,2.40
2023-06-05T00:23:23.298Z,2.30
2023-06-05T00:24:23.221Z,2.20
2023-06-05T00:25:23.222Z,2.70
2023-06-05T00:26:23.140Z,2.40
2023-06-05T00:27:23.102Z,2.30
2023-06-05T00:28:23.067Z,2.50
2023-06-05T00:29:23.113Z,2.40
2023-06-05T00:30:23.000Z,2.30
2023-06-05T00:31:23.124Z,2.20
2023-06-05T00:32:22.933Z,2.40
2023-06-05T00:33:22.917Z,2.30
2023-06-05T00:34:22.844Z,2.40
2023-06-05T00:35:22.802Z,2.30
2023-06-05T00:36:22.784Z,2.30
2023-06-05T00:37:22.728Z,2.50
2023-06-05T00:38:22.690Z,2.40
2023-06-05T00:39:22.646Z,2.50
2023-06-05T00:40:22.607Z,2.50
2023-06-05T00:41:22.568Z,2.40
2023-06-05T00:42:22.541Z,2.70
2023-06-05T00:43:22.495Z,2.50
2023-06-05T00:44:22.448Z,2.40
2023-06-05T00:45:22.423Z,2.80
2023-06-05T00:46:22.413Z,2.70
2023-06-05T00:47:22.367Z,2.60
2023-06-05T00:48:22.296Z,2.70
2023-06-05T00:49:22.268Z,2.80
2023-06-05T00:50:22.221Z,2.70
2023-06-05T00:51:22.196Z,2.70
2023-06-05T00:52:22.165Z,2.90
2023-06-05T00:53:22.116Z,2.50
2023-06-05T00:54:22.111Z,2.70
2023-06-05T00:55:22.039Z,2.50
2023-06-05T00:56:22.142Z,2.50
2023-06-05T00:57:21.963Z,2.60
2023-06-05T00:58:21.910Z,2.60
2023-06-05T00:59:21.887Z,2.90
2023-06-05T01:00:21.872Z,2.70
2023-06-05T01:01:21.877Z,2.50
2023-06-05T01:02:21.774Z,2.60
2023-06-05T01:03:21.821Z,2.70
2023-06-05T01:04:21.681Z,2.70
2023-06-05T01:05:21.669Z,2.50
2023-06-05T01:06:21.597Z,2.90
2023-06-05T01:07:21.580Z,2.40
2023-06-05T01:08:21.521Z,2.60
2023-06-05T01:09:21.495Z,2.30
2023-06-05T01:10:21.461Z,2.70
2023-06-05T01:11:21.465Z,2.70
2023-06-05T01:12:21.471Z,2.50
2023-06-05T01:13:21.351Z,2.60
2023-06-05T01:14:21.295Z,2.70
2023-06-05T01:15:21.256Z,2.70
2023-06-05T01:16:21.234Z,2.70
2023-06-05T01:17:21.242Z,2.80
2023-06-05T01:18:21.170Z,2.50
2023-06-05T01:19:21.103Z,2.50
2023-06-05T01:20:21.072Z,2.80
2023-06-05T01:21:21.021Z,2.60
2023-06-05T01:22:21.000Z,2.60
2023-06-05T01:23:20.997Z,3.00
2023-06-05T01:24:20.916Z,2.80
2023-06-05T01:25:20.871Z,3.10
2023-06-05T01:26:20.829Z,2.80
2023-06-05T01:27:20.786Z,2.70
2023-06-05T01:28:20.769Z,2.60
2023-06-05T01:29:20.730Z,2.70
2023-06-05T01:30:20.678Z,2.80
2023-06-05T01:31:20.652Z,3.00
2023-06-05T01:32:20.591Z,2.60
2023-06-05T01:33:20.561Z,2.90
2023-06-05T01:34:20.514Z,3.00
2023-06-05T01:35:20.518Z,3.10
2023-06-05T01:36:20.434Z,2.70
2023-06-05T01:37:20.595Z,3.10
2023-06-05T01:38:20.368Z,3.00
2023-06-05T01:39:20.332Z,3.10
2023-06-05T01:40:20.322Z,3.30
2023-06-05T01:41:20.250Z,2.90
2023-06-05T01:42:20.201Z,2.70
2023-06-05T01:43:20.176Z,2.80
2023-06-05T01:44:20.121Z,2.90
2023-06-05T01:45:20.096Z,2.90
2023-06-05T01:46:20.086Z,2.90
2023-06-05T01:47:20.013Z,2.90
2023-06-05T01:48:19.973Z,2.70
2023-06-05T01:49:19.934Z,3.30
2023-06-05T01:50:39.329Z,3.20
2023-06-05T01:51:38.929Z,3.00
2023-06-05T01:52:37.936Z,2.90
2023-06-05T01:53:41.914Z,3.40
2023-06-05T01:54:38.468Z,3.00
2023-06-05T01:55:19.726Z,3.00
2023-06-05T01:56:30.525Z,2.90
2023-06-05T01:57:29.048Z,3.10
2023-06-05T01:58:19.623Z,2.90
2023-06-05T01:59:19.532Z,3.00
2023-06-05T02:00:28.580Z,3.40
2023-06-05T02:01:29.674Z,3.30
2023-06-05T02:02:37.243Z,3.60
2023-06-05T02:03:19.486Z,3.30
2023-06-05T02:04:19.360Z,3.20
2023-06-05T02:05:19.313Z,3.50
2023-06-05T02:06:19.260Z,3.60
2023-06-05T02:07:19.246Z,3.10
2023-06-05T02:08:19.180Z,3.40
2023-06-05T02:09:19.197Z,3.60
2023-06-05T02:10:19.100Z,3.50
2023-06-05T02:11:19.084Z,3.80
2023-06-05T02:12:19.020Z,3.90
2023-06-05T02:13:18.979Z,3.50
2023-06-05T02:14:18.937Z,3.80
2023-06-05T02:15:18.916Z,3.80
2023-06-05T02:16:18.937Z,3.50
2023-06-05T02:17:18.852Z,3.50
2023-06-05T02:18:39.695Z,3.80
2023-06-05T02:20:45.727Z,3.30
2023-06-05T02:21:13.228Z,3.60
2023-06-05T02:21:46.172Z,3.40
2023-06-05T02:22:46.212Z,3.70
2023-06-05T02:23:46.115Z,3.40
2023-06-05T02:24:46.030Z,3.70
2023-06-05T02:25:46.009Z,3.40
2023-06-05T02:26:45.966Z,3.70
2023-06-05T02:27:45.939Z,3.60
2023-06-05T02:28:45.870Z,3.80
2023-06-05T02:29:45.836Z,3.60
2023-06-05T02:30:45.807Z,3.60
2023-06-05T02:31:45.797Z,3.90
2023-06-05T02:32:45.809Z,3.50
2023-06-05T02:33:45.691Z,4.00
2023-06-05T02:34:45.634Z,3.70
2023-06-05T02:35:45.600Z,3.70
2023-06-05T02:36:45.556Z,3.40
2023-06-05T02:37:45.555Z,3.50
2023-06-05T02:38:45.483Z,3.50
2023-06-05T02:39:45.463Z,4.00
2023-06-05T02:40:45.399Z,3.60
2023-06-05T02:41:45.360Z,3.90
2023-06-05T02:42:45.323Z,3.90
2023-06-05T02:43:45.282Z,3.90
2023-06-05T02:44:45.240Z,3.70
2023-06-05T02:45:45.261Z,3.80
2023-06-05T02:46:45.162Z,3.50
2023-06-05T02:47:45.153Z,4.00
2023-06-05T02:48:45.103Z,3.50
2023-06-05T02:49:45.045Z,3.40
2023-06-05T02:50:45.000Z,3.30
2023-06-05T02:51:44.991Z,3.50
2023-06-05T02:52:44.930Z,4.10
2023-06-05T02:53:44.887Z,3.40
2023-06-05T02:54:44.852Z,3.90
2023-06-05T02:55:44.817Z,3.60
2023-06-05T02:56:44.762Z,3.80
2023-06-05T02:57:44.753Z,3.90
2023-06-05T02:58:44.697Z,4.00
2023-06-05T02:59:44.673Z,3.80
2023-06-05T03:00:44.605Z,4.00
2023-06-05T03:01:44.653Z,3.90
2023-06-05T03:02:44.604Z,3.80
2023-06-05T03:03:44.562Z,3.70
2023-06-05T03:04:44.460Z,3.70
2023-06-05T03:05:44.421Z,3.70
2023-06-05T03:06:44.386Z,3.60
2023-06-05T03:07:44.337Z,3.70
2023-06-05T03:08:44.288Z,3.80
2023-06-05T03:09:44.271Z,3.70
2023-06-05T03:10:44.247Z,3.80
2023-06-05T03:11:44.189Z,3.80
2023-06-05T03:12:44.138Z,3.80
2023-06-05T03:13:44.092Z,3.60
2023-06-05T03:14:44.064Z,4.20
2023-06-05T03:15:44.050Z,3.80
2023-06-05T03:16:43.988Z,4.00
2023-06-05T03:17:44.017Z,4.00
2023-06-05T03:18:43.906Z,4.10
2023-06-05T03:19:43.857Z,4.00
2023-06-05T03:20:43.819Z,3.70
2023-06-05T03:21:43.778Z,4.20
2023-06-05T03:22:43.741Z,4.00
2023-06-05T03:23:43.818Z,3.80
2023-06-05T03:24:43.660Z,4.20
2023-06-05T03:25:43.621Z,4.20
2023-06-05T03:26:43.594Z,4.10
2023-06-05T03:27:43.540Z,3.90
2023-06-05T03:28:43.513Z,4.00
2023-06-05T03:29:43.471Z,4.00
2023-06-05T03:30:43.427Z,4.10
2023-06-05T03:31:43.381Z,4.30
2023-06-05T03:32:43.406Z,4.40
2023-06-05T03:33:43.316Z,3.80
2023-06-05T03:34:43.261Z,4.10
2023-06-05T03:35:43.251Z,4.40
2023-06-05T03:36:43.181Z,4.20
2023-06-05T03:37:43.143Z,4.60
2023-06-05T03:38:43.115Z,4.10
2023-06-05T03:39:43.062Z,4.40
2023-06-05T03:40:43.123Z,4.10
2023-06-05T03:41:43.020Z,4.10
2023-06-05T03:42:42.964Z,4.60
2023-06-05T03:43:42.906Z,4.10
2023-06-05T03:44:42.860Z,4.40
2023-06-05T03:45:42.842Z,4.50
2023-06-05T03:46:42.848Z,4.40
2023-06-05T03:47:42.778Z,4.50
2023-06-05T03:48:42.701Z,4.50
2023-06-05T03:49:42.669Z,4.40
2023-06-05T03:50:42.638Z,4.60
2023-06-05T03:51:42.590Z,4.80
2023-06-05T03:52:42.565Z,4.80
2023-06-05T03:53:42.512Z,4.40
2023-06-05T03:54:42.476Z,4.40
2023-06-05T03:55:42.583Z,4.40
2023-06-05T03:56:42.390Z,4.60
2023-06-05T03:57:42.414Z,4.60
2023-06-05T03:58:42.319Z,4.60
2023-06-05T03:59:42.280Z,4.60
2023-06-05T04:00:42.231Z,4.80
2023-06-05T04:01:42.260Z,4.50
2023-06-05T04:02:42.175Z,4.60
2023-06-05T04:03:42.246Z,4.50
2023-06-05T04:04:42.076Z,4.60
2023-06-05T04:05:42.039Z,4.60
2023-06-05T04:06:42.025Z,4.80
2023-06-05T04:07:41.977Z,5.00
2023-06-05T04:08:41.928Z,4.90
2023-06-05T04:09:41.874Z,5.00
2023-06-05T04:10:41.841Z,4.90
2023-06-05T04:11:41.793Z,4.70
2023-06-05T04:12:41.773Z,4.20
2023-06-05T04:13:53.929Z,4.80
2023-06-05T04:14:41.681Z,4.70
2023-06-05T04:15:41.643Z,5.00
2023-06-05T04:16:41.725Z,4.70
2023-06-05T04:17:41.608Z,5.10
2023-06-05T04:18:41.518Z,4.70
2023-06-05T04:19:41.507Z,4.70
2023-06-05T04:20:41.450Z,4.60
2023-06-05T04:21:41.425Z,4.50
2023-06-05T04:22:41.360Z,4.40
2023-06-05T04:23:41.376Z,5.00
2023-06-05T04:24:41.282Z,5.00
2023-06-05T04:25:41.264Z,4.70
2023-06-05T04:26:41.232Z,5.10
2023-06-05T04:27:41.172Z,5.30
2023-06-05T04:28:41.126Z,5.00
2023-06-05T04:29:41.082Z,5.10
2023-06-05T04:30:41.096Z,5.20
2023-06-05T04:31:41.006Z,5.10
2023-06-05T04:32:40.997Z,4.90
2023-06-05T04:33:40.958Z,5.30
2023-06-05T04:34:40.894Z,5.00
2023-06-05T04:35:40.893Z,4.90
2023-06-05T04:36:40.807Z,5.00
2023-06-05T04:37:40.779Z,5.00
2023-06-05T04:38:40.745Z,4.60
2023-06-05T04:39:40.711Z,4.50
2023-06-05T04:40:40.726Z,4.60
2023-06-05T04:41:40.615Z,4.70
2023-06-05T04:42:40.585Z,4.20
2023-06-05T04:43:40.536Z,4.50
2023-06-05T04:44:40.517Z,4.10
2023-06-05T04:45:40.460Z,4.90
2023-06-05T04:46:40.510Z,4.50
2023-06-05T04:47:40.378Z,4.20
2023-06-05T04:48:40.353Z,4.40
2023-06-05T04:49:40.328Z,4.40
2023-06-05T04:50:40.329Z,4.40
2023-06-05T04:51:40.247Z,4.00
2023-06-05T04:52:40.219Z,4.40
2023-06-05T04:53:40.174Z,4.00
2023-06-05T04:54:40.143Z,3.90
2023-06-05T04:55:40.107Z,4.40
2023-06-05T04:56:40.055Z,4.10
2023-06-05T04:57:40.016Z,4.40
2023-06-05T04:58:39.975Z,3.90
2023-06-05T04:59:39.943Z,4.10
2023-06-05T05:00:39.949Z,3.90
2023-06-05T05:01:39.899Z,3.80
2023-06-05T05:02:39.905Z,3.90
2023-06-05T05:03:39.826Z,3.80
2023-06-05T05:04:39.795Z,4.10
2023-06-05T05:05:39.719Z,3.80
2023-06-05T05:06:39.707Z,3.50
2023-06-05T05:07:39.656Z,4.00
2023-06-05T05:08:39.616Z,4.00
2023-06-05T05:09:39.604Z,3.60
2023-06-05T05:10:39.558Z,3.80
2023-06-05T05:11:39.529Z,4.00
2023-06-05T05:12:39.508Z,3.60
2023-06-05T05:13:39.532Z,3.60
2023-06-05T05:14:39.416Z,3.90
2023-06-05T05:15:39.367Z,3.90
2023-06-05T05:16:39.410Z,3.60
2023-06-05T05:17:39.334Z,3.40
2023-06-05T05:18:39.267Z,4.00
2023-06-05T05:19:39.232Z,3.70
2023-06-05T05:20:39.206Z,3.60
2023-06-05T05:21:39.167Z,3.90
2023-06-05T05:22:39.151Z,3.60
2023-06-05T05:23:39.117Z,3.80
2023-06-05T05:24:39.075Z,3.80
2023-06-05T05:25:39.032Z,3.90
2023-06-05T05:26:39.000Z,3.80
2023-06-05T05:27:38.993Z,3.90
2023-06-05T05:28:38.937Z,4.10
2023-06-05T05:29:38.886Z,3.80
2023-06-05T05:30:38.866Z,3.60
2023-06-05T05:31:38.896Z,3.80
2023-06-05T05:32:38.835Z,3.90
2023-06-05T05:33:38.770Z,3.40
2023-06-05T05:34:38.720Z,3.40
2023-06-05T05:35:38.702Z,3.70
2023-06-05T05:36:38.668Z,4.10
2023-06-05T05:37:38.621Z,3.90
2023-06-05T05:38:38.594Z,3.70
2023-06-05T05:39:38.582Z,3.50
2023-06-05T05:40:38.544Z,3.90
2023-06-05T05:41:38.500Z,3.70
2023-06-05T05:42:38.458Z,3.80
2023-06-05T05:43:38.422Z,3.30
2023-06-05T05:44:38.400Z,3.40
2023-06-05T05:45:38.378Z,3.60
2023-06-05T05:46:38.339Z,3.50
2023-06-05T05:47:38.330Z,3.50
2023-06-05T05:48:38.266Z,3.60
2023-06-05T05:49:38.222Z,3.50
2023-06-05T05:50:38.199Z,3.30
2023-06-05T05:51:38.159Z,3.30
2023-06-05T05:52:38.135Z,3.80
2023-06-05T05:53:38.121Z,3.60
2023-06-05T05:54:38.069Z,3.60
2023-06-05T05:55:38.034Z,3.40
2023-06-05T05:56:38.011Z,3.80
2023-06-05T05:57:37.962Z,3.20
2023-06-05T05:58:37.952Z,3.80
2023-06-05T05:59:37.906Z,3.50
2023-06-05T06:00:37.868Z,3.70
2023-06-05T06:01:37.844Z,3.20
2023-06-05T06:02:50.510Z,3.50
2023-06-05T06:03:37.921Z,3.50
2023-06-05T06:04:37.821Z,3.40
2023-06-05T06:05:37.714Z,3.20
2023-06-05T06:06:37.681Z,3.30
2023-06-05T06:07:49.994Z,3.50
2023-06-05T06:08:46.054Z,3.10
2023-06-05T06:09:37.651Z,3.20
2023-06-05T06:10:46.216Z,3.10
2023-06-05T06:11:46.601Z,3.20
2023-06-05T06:12:37.536Z,3.30
2023-06-05T06:13:46.628Z,3.30
2023-06-05T06:14:37.435Z,3.10
2023-06-05T06:15:37.413Z,2.90
2023-06-05T06:16:37.345Z,3.10
2023-06-05T06:17:37.353Z,3.30
2023-06-05T06:18:37.274Z,2.80
2023-06-05T06:19:37.249Z,3.20
2023-06-05T06:20:37.249Z,3.20
2023-06-05T06:21:37.195Z,3.00
2023-06-05T06:22:37.158Z,2.90
2023-06-05T06:23:37.223Z,3.20
2023-06-05T06:24:37.078Z,2.90
2023-06-05T06:25:37.041Z,2.80
2023-06-05T06:26:37.027Z,3.20
2023-06-05T06:27:36.994Z,3.10
2023-06-05T06:28:36.988Z,3.20
2023-06-05T06:29:36.915Z,3.00
2023-06-05T06:30:36.891Z,2.70
2023-06-05T06:31:36.915Z,3.00
2023-06-05T06:32:36.854Z,2.80
2023-06-05T06:33:36.782Z,3.10
2023-06-05T06:34:36.773Z,2.90
2023-06-05T06:35:36.732Z,3.20
2023-06-05T06:36:36.693Z,2.80
2023-06-05T06:37:36.787Z,3.20
2023-06-05T06:38:36.632Z,3.00
2023-06-05T06:39:36.596Z,3.10
2023-06-05T06:40:36.587Z,2.90
2023-06-05T06:41:36.534Z,3.00
2023-06-05T06:42:36.496Z,2.80
2023-06-05T06:43:36.471Z,2.60
2023-06-05T06:44:36.440Z,2.70
2023-06-05T06:45:36.460Z,2.80
2023-06-05T06:46:36.375Z,3.10
2023-06-05T06:47:36.364Z,2.80
2023-06-05T06:48:36.446Z,2.80
2023-06-05T06:49:36.294Z,2.70
2023-06-05T06:50:36.294Z,2.70
2023-06-05T06:51:36.232Z,2.50
2023-06-05T06:52:36.179Z,2.50
2023-06-05T06:53:36.151Z,2.80
2023-06-05T06:54:36.282Z,2.70
2023-06-05T06:55:36.097Z,2.80
2023-06-05T06:56:36.070Z,2.60
2023-06-05T06:57:36.056Z,2.70
2023-06-05T06:58:35.995Z,2.50
2023-06-05T06:59:37.255Z,2.60
2023-06-05T07:00:36.002Z,2.70
2023-06-05T07:01:35.923Z,2.70
2023-06-05T07:02:35.932Z,2.80
2023-06-05T07:03:35.915Z,2.50
2023-06-05T07:04:43.691Z,2.30
2023-06-05T07:05:45.722Z,2.50
2023-06-05T07:06:45.259Z,2.20
2023-06-05T07:07:43.287Z,2.30
2023-06-05T07:08:44.359Z,2.50
2023-06-05T07:09:35.673Z,2.30
2023-06-05T07:10:42.730Z,2.30
2023-06-05T07:11:35.589Z,2.10
2023-06-05T07:12:35.551Z,2.40
2023-06-05T07:13:35.525Z,2.50
2023-06-05T07:14:35.517Z,2.20
2023-06-05T07:15:43.442Z,1.90
2023-06-05T07:16:35.497Z,2.10
2023-06-05T07:17:35.411Z,2.40
2023-06-05T07:18:35.371Z,2.00
2023-06-05T07:19:35.346Z,2.30
2023-06-05T07:20:35.313Z,1.90
2023-06-05T07:21:35.280Z,2.30
2023-06-05T07:22:35.262Z,2.00
2023-06-05T07:23:35.246Z,2.00
2023-06-05T07:24:35.184Z,2.20
2023-06-05T07:25:35.164Z,2.00
2023-06-05T07:26:35.122Z,2.10
2023-06-05T07:27:35.111Z,2.10
2023-06-05T07:28:35.072Z,1.90
2023-06-05T07:29:35.033Z,2.00
2023-06-05T07:30:35.013Z,2.10
2023-06-05T07:31:35.036Z,1.80
2023-06-05T07:32:34.954Z,1.90
2023-06-05T07:33:34.974Z,1.90
2023-06-05T07:34:34.879Z,2.00
2023-06-05T07:35:35.762Z,1.80
2023-06-05T07:36:34.818Z,1.90
2023-06-05T07:37:34.806Z,1.80
2023-06-05T07:38:34.761Z,2.00
2023-06-05T07:39:34.736Z,2.00
2023-06-05T07:40:34.688Z,1.70
2023-06-05T07:41:34.664Z,1.80
2023-06-05T07:42:34.638Z,2.00
2023-06-05T07:43:34.615Z,2.00
2023-06-05T07:44:34.615Z,2.00
2023-06-05T07:45:34.548Z,1.90
2023-06-05T07:47:02.146Z,1.70
2023-06-05T07:47:35.390Z,2.10
2023-06-05T07:49:34.444Z,2.00
2023-06-05T07:50:34.414Z,1.80
2023-06-05T07:51:34.376Z,1.80
2023-06-05T07:52:34.354Z,1.80
2023-06-05T07:53:34.306Z,1.70
2023-06-05T07:54:34.700Z,1.90
2023-06-05T07:55:34.287Z,1.80
2023-06-05T07:56:34.250Z,1.60
2023-06-05T07:57:34.189Z,1.60
2023-06-05T07:58:34.240Z,1.70
2023-06-05T08:01:43.162Z,1.70
2023-06-05T08:02:43.183Z,2.00
2023-06-05T08:03:43.301Z,1.80
2023-06-05T08:04:43.065Z,1.70
2023-06-05T08:05:43.019Z,1.70
2023-06-05T08:06:46.232Z,1.80
2023-06-05T08:07:43.012Z,1.80
2023-06-05T08:08:42.947Z,1.80
2023-06-05T08:09:42.901Z,1.70
2023-06-05T08:10:42.862Z,2.40
2023-06-05T08:11:43.004Z,2.10
2023-06-05T08:12:42.806Z,2.00
2023-06-05T08:13:42.775Z,1.90
2023-06-05T08:14:42.761Z,1.90
2023-06-05T08:15:42.800Z,2.30
2023-06-05T08:16:42.732Z,2.00
2023-06-05T08:17:42.699Z,1.70
2023-06-05T08:18:42.633Z,1.70
2023-06-05T08:19:42.591Z,2.10
2023-06-05T08:20:42.589Z,1.90
2023-06-05T08:21:42.548Z,2.00
2023-06-05T08:22:42.503Z,2.00
2023-06-05T08:23:42.509Z,1.90
2023-06-05T08:24:42.460Z,1.90
2023-06-05T08:25:42.411Z,2.10
2023-06-05T08:26:42.416Z,1.90
2023-06-05T08:27:42.367Z,1.90
2023-06-05T08:28:42.335Z,2.10
2023-06-05T08:29:42.305Z,2.00
2023-06-05T08:30:42.266Z,2.20
2023-06-05T08:31:42.285Z,2.30
2023-06-05T08:32:42.229Z,2.10
2023-06-05T08:33:42.202Z,2.30
2023-06-05T08:34:42.164Z,2.00
2023-06-05T08:35:42.141Z,2.30
2023-06-05T08:36:42.096Z,2.20
2023-06-05T08:37:42.077Z,2.00
2023-06-05T08:38:42.875Z,2.00
2023-06-05T08:39:41.993Z,2.20
2023-06-05T08:40:41.975Z,2.10
2023-06-05T08:41:41.940Z,2.00
2023-06-05T08:42:41.937Z,2.20
2023-06-05T08:43:41.907Z,1.80
2023-06-05T08:44:50.233Z,2.10
2023-06-05T08:45:41.844Z,2.20
2023-06-05T08:46:41.804Z,2.10
2023-06-05T08:47:41.803Z,1.90
2023-06-05T08:48:41.743Z,1.90
2023-06-05T08:49:41.702Z,1.80
2023-06-05T08:50:41.686Z,1.80
2023-06-05T08:51:41.641Z,2.00
2023-06-05T08:52:41.613Z,2.00
2023-06-05T08:53:41.593Z,2.30
2023-06-05T08:54:41.578Z,2.10
2023-06-05T08:55:41.541Z,2.00
2023-06-05T08:56:41.537Z,2.00
2023-06-05T08:57:41.482Z,2.00
2023-06-05T08:58:41.448Z,2.10
2023-06-05T08:59:41.409Z,2.00
2023-06-05T09:00:41.401Z,2.20
2023-06-05T09:01:41.412Z,1.90
2023-06-05T09:02:41.400Z,1.80
2023-06-05T09:03:41.335Z,2.00
2023-06-05T09:04:41.275Z,2.10
2023-06-05T09:05:41.239Z,2.00
2023-06-05T09:06:41.236Z,1.90
2023-06-05T09:07:41.182Z,2.10
2023-06-05T09:08:41.153Z,1.80
2023-06-05T09:09:41.119Z,2.20
2023-06-05T09:10:41.094Z,2.10
2023-06-05T09:11:41.078Z,2.00
2023-06-05T09:12:41.062Z,2.10
2023-06-05T09:13:41.009Z,2.10
2023-06-05T09:14:40.986Z,2.10
2023-06-05T09:15:40.997Z,1.90
2023-06-05T09:16:40.930Z,1.90
2023-06-05T09:17:40.929Z,2.00
2023-06-05T09:18:40.879Z,1.90
2023-06-05T09:19:40.832Z,1.90
2023-06-05T09:20:40.825Z,2.20
2023-06-05T09:21:43.453Z,1.90
2023-06-05T09:22:40.755Z,2.00
2023-06-05T09:23:40.733Z,2.10
2023-06-05T09:24:40.723Z,2.10
2023-06-05T09:25:40.666Z,1.90
2023-06-05T09:26:40.638Z,2.30
2023-06-05T09:27:40.616Z,2.00
2023-06-05T09:28:40.578Z,2.00
2023-06-05T09:29:40.559Z,2.10
2023-06-05T09:30:40.532Z,2.20
2023-06-05T09:31:40.636Z,2.30
2023-06-05T09:32:40.509Z,2.30
2023-06-05T09:33:40.434Z,2.30
2023-06-05T09:34:40.425Z,2.10
2023-06-05T09:35:40.382Z,2.10
2023-06-05T09:36:40.369Z,2.10
2023-06-05T09:37:40.338Z,2.30
2023-06-05T09:38:40.291Z,2.10
2023-06-05T09:39:40.261Z,2.30
2023-06-05T09:40:40.247Z,2.10
2023-06-05T09:41:40.200Z,2.20
2023-06-05T09:42:40.184Z,2.30
2023-06-05T09:43:40.142Z,2.20
2023-06-05T09:44:40.124Z,2.10
2023-06-05T09:45:40.090Z,2.10
2023-06-05T09:46:40.097Z,2.30
2023-06-05T09:47:53.271Z,2.10
2023-06-05T09:48:40.028Z,2.10
2023-06-05T09:49:40.131Z,2.10
2023-06-05T09:50:40.058Z,2.00
2023-06-05T09:51:39.915Z,1.90
2023-06-05T09:52:39.889Z,2.20
2023-06-05T09:53:39.859Z,2.20
2023-06-05T09:54:39.860Z,2.20
2023-06-05T09:55:39.802Z,2.10
2023-06-05T09:56:39.774Z,2.20
2023-06-05T09:57:39.736Z,2.20
2023-06-05T09:58:39.716Z,2.20
2023-06-05T09:59:39.683Z,2.30
2023-06-05T10:00:39.702Z,2.30
2023-06-05T10:01:39.633Z,2.40
2023-06-05T10:02:39.603Z,2.30
2023-06-05T10:03:39.565Z,2.20
2023-06-05T10:04:39.827Z,2.10
2023-06-05T10:05:39.535Z,2.50
2023-06-05T10:06:39.501Z,2.20
2023-06-05T10:07:39.457Z,2.70
2023-06-05T10:08:39.432Z,2.50
2023-06-05T10:09:39.399Z,2.60
2023-06-05T10:10:39.384Z,2.40
2023-06-05T10:11:39.351Z,2.50
2023-06-05T10:12:39.324Z,2.40
2023-06-05T10:13:39.293Z,2.30
2023-06-05T10:14:39.264Z,2.40
2023-06-05T10:15:39.239Z,2.60
2023-06-05T10:16:39.246Z,2.30
2023-06-05T10:17:39.223Z,2.70
2023-06-05T10:18:39.144Z,2.50
2023-06-05T10:19:39.122Z,2.30
2023-06-05T10:20:39.124Z,2.50
2023-06-05T10:21:39.061Z,2.30
2023-06-05T10:22:39.048Z,2.40
2023-06-05T10:23:39.030Z,2.40
2023-06-05T10:24:38.997Z,2.50
2023-06-05T10:25:38.950Z,2.40
2023-06-05T10:26:38.926Z,2.10
2023-06-05T10:27:38.935Z,2.20
2023-06-05T10:28:38.866Z,2.40
2023-06-05T10:29:38.851Z,2.30
2023-06-05T10:30:38.851Z,2.40
2023-06-05T10:31:38.810Z,2.20
2023-06-05T10:32:38.799Z,2.40
2023-06-05T10:33:49.077Z,2.30
2023-06-05T10:34:49.514Z,2.40
2023-06-05T10:37:28.886Z,2.50
2023-06-05T10:38:35.426Z,2.10
2023-06-05T10:39:33.534Z,2.20
2023-06-05T10:40:33.659Z,2.20
2023-06-05T10:41:32.700Z,2.30
2023-06-05T10:42:36.675Z,2.30
2023-06-05T10:43:36.207Z,2.30
2023-06-05T10:44:25.694Z,2.20
2023-06-05T10:45:25.031Z,2.30
2023-06-05T10:46:25.044Z,2.30
2023-06-05T10:47:25.017Z,2.20
2023-06-05T10:48:24.938Z,2.30
2023-06-05T10:49:24.987Z,2.10
2023-06-05T10:50:24.883Z,2.20
2023-06-05T10:51:24.858Z,2.20
2023-06-05T10:52:24.883Z,2.20
2023-06-05T10:53:24.805Z,2.40
2023-06-05T10:54:24.896Z,2.20
2023-06-05T10:55:24.774Z,2.40
2023-06-05T10:56:24.749Z,2.40
2023-06-05T10:57:24.699Z,2.20
2023-06-05T10:58:24.697Z,2.30
2023-06-05T10:59:24.629Z,2.50
2023-06-05T11:00:24.602Z,2.50
2023-06-05T11:01:24.613Z,2.30
2023-06-05T11:02:24.626Z,2.40
2023-06-05T11:03:24.519Z,2.60
2023-06-05T11:04:24.539Z,2.60
2023-06-05T11:05:24.454Z,2.70
2023-06-05T11:06:24.430Z,2.10
2023-06-05T11:07:24.406Z,2.20
2023-06-05T11:08:24.397Z,2.50
2023-06-05T11:09:24.342Z,2.50
2023-06-05T11:10:24.337Z,2.40
2023-06-05T11:11:24.296Z,2.40
2023-06-05T11:12:24.267Z,2.30
2023-06-05T11:13:24.238Z,2.30
2023-06-05T11:14:24.205Z,2.30
2023-06-05T11:15:24.178Z,2.20
2023-06-05T11:16:24.227Z,2.30
2023-06-05T11:17:24.697Z,2.40
2023-06-05T11:18:24.111Z,2.40
2023-06-05T11:19:24.065Z,2.50
2023-06-05T11:20:24.063Z,2.00
2023-06-05T11:21:23.998Z,2.40
2023-06-05T11:22:23.973Z,2.60
2023-06-05T11:23:24.005Z,2.30
2023-06-05T11:24:23.921Z,2.60
2023-06-05T11:25:23.890Z,2.40
2023-06-05T11:26:23.879Z,2.10
2023-06-05T11:27:23.841Z,2.30
2023-06-05T11:28:23.802Z,2.20
2023-06-05T11:29:23.804Z,2.30
2023-06-05T11:30:39.287Z,2.10
2023-06-05T11:31:23.754Z,2.40
2023-06-05T11:32:23.756Z,2.60
2023-06-05T11:33:23.738Z,2.60
2023-06-05T11:34:23.669Z,2.50
2023-06-05T11:35:24.199Z,2.20
2023-06-05T11:36:23.590Z,2.30
2023-06-05T11:37:23.549Z,2.30
2023-06-05T11:38:25.182Z,2.10
2023-06-05T11:39:23.483Z,2.50
2023-06-05T11:40:23.468Z,2.30
2023-06-05T11:41:23.460Z,2.20
2023-06-05T11:42:23.416Z,2.20
2023-06-05T11:43:23.409Z,2.20
2023-06-05T11:44:23.350Z,2.10
2023-06-05T11:45:23.317Z,2.30
2023-06-05T11:46:23.357Z,2.10
2023-06-05T11:47:23.328Z,2.40
2023-06-05T11:48:23.253Z,2.60
2023-06-05T11:49:23.205Z,2.50
2023-06-05T11:50:23.174Z,2.30
2023-06-05T11:51:23.148Z,2.40
2023-06-05T11:52:23.214Z,2.50
2023-06-05T11:53:23.104Z,2.30
2023-06-05T11:54:23.080Z,2.30
2023-06-05T11:55:23.042Z,2.70
2023-06-05T11:56:23.019Z,2.10
2023-06-05T11:57:22.981Z,2.50
2023-06-05T11:58:22.975Z,2.40
2023-06-05T11:59:22.916Z,2.40
2023-06-05T12:00:22.908Z,2.40
2023-06-05T12:01:23.123Z,2.10
2023-06-05T12:02:22.905Z,2.40
2023-06-05T12:03:22.990Z,2.60
2023-06-05T12:04:22.836Z,2.70
2023-06-05T12:05:22.749Z,2.60
2023-06-05T12:06:22.747Z,2.40
2023-06-05T12:07:22.694Z,2.60
2023-06-05T12:08:22.685Z,2.30
2023-06-05T12:09:22.690Z,2.60
2023-06-05T12:10:22.624Z,2.30
2023-06-05T12:11:22.584Z,2.30
2023-06-05T12:12:22.564Z,2.40
2023-06-05T12:13:22.527Z,2.40
2023-06-05T12:14:22.523Z,2.60
2023-06-05T12:15:22.503Z,2.50
2023-06-05T12:16:22.462Z,2.70
2023-06-05T12:17:22.417Z,2.60
2023-06-05T12:18:22.394Z,2.20
2023-06-05T12:19:22.359Z,2.10
2023-06-05T12:20:22.370Z,2.60
2023-06-05T12:25:34.160Z,2.50
2023-06-05T12:26:34.089Z,2.30
2023-06-05T12:27:34.083Z,2.60
2023-06-05T12:28:37.028Z,2.20
2023-06-05T12:29:33.994Z,2.50
2023-06-05T12:30:33.970Z,2.10
2023-06-05T12:31:33.983Z,2.40
2023-06-05T12:32:33.945Z,2.30
2023-06-05T12:33:33.886Z,2.30
2023-06-05T12:34:47.409Z,2.10
2023-06-05T12:35:33.844Z,2.20
2023-06-05T12:36:33.804Z,2.10
2023-06-05T12:37:34.300Z,2.40
2023-06-05T12:38:33.742Z,2.10
2023-06-05T12:39:33.712Z,2.30
2023-06-05T12:40:37.697Z,2.00
2023-06-05T12:41:33.654Z,2.10
2023-06-05T12:42:33.623Z,2.40
2023-06-05T12:43:33.589Z,2.10
2023-06-05T12:44:33.561Z,2.10
2023-06-05T12:45:33.626Z,2.20
2023-06-05T12:46:33.594Z,2.30
2023-06-05T12:47:33.472Z,2.20
2023-06-05T12:48:33.438Z,2.10
2023-06-05T12:49:33.406Z,2.40
2023-06-05T12:50:33.389Z,2.00
2023-06-05T12:51:33.373Z,2.10
2023-06-05T12:52:33.325Z,2.20
2023-06-05T12:53:33.279Z,2.40
2023-06-05T12:54:33.251Z,2.10
2023-06-05T12:55:33.211Z,2.00
2023-06-05T12:56:33.186Z,2.20
2023-06-05T12:57:33.171Z,2.30
2023-06-05T12:58:33.123Z,2.00
2023-06-05T12:59:33.084Z,2.20
2023-06-05T13:00:33.055Z,2.00
2023-06-05T13:01:34.573Z,2.00
2023-06-05T13:02:33.123Z,2.40
2023-06-05T13:03:32.990Z,2.00
2023-06-05T13:04:33.808Z,2.30
2023-06-05T13:05:32.893Z,2.30
2023-06-05T13:06:32.860Z,2.30
2023-06-05T13:07:32.824Z,2.10
2023-06-05T13:08:33.794Z,2.10
2023-06-05T13:09:32.759Z,2.30
2023-06-05T13:10:32.755Z,2.20
2023-06-05T13:11:32.695Z,2.20
2023-06-05T13:12:32.828Z,2.20
2023-06-05T13:13:32.641Z,2.10
2023-06-05T13:14:32.599Z,2.40
2023-06-05T13:15:33.527Z,2.30
2023-06-05T13:16:32.584Z,2.20
2023-06-05T13:17:32.541Z,2.40
2023-06-05T13:18:32.469Z,2.40
2023-06-05T13:19:32.439Z,2.20
2023-06-05T13:20:32.488Z,2.00
2023-06-05T13:21:32.365Z,1.90
2023-06-05T13:22:32.369Z,2.40
2023-06-05T13:23:32.472Z,2.00
2023-06-05T13:24:32.332Z,2.20
2023-06-05T13:25:32.238Z,2.30
2023-06-05T13:26:32.305Z,2.50
2023-06-05T13:27:32.193Z,2.20